createdAt,value
2022-12-27T00:00:54.139Z,3.65
2022-12-27T00:03:21.446Z,3.80
2022-12-27T00:05:48.645Z,4.40
2022-12-27T00:08:15.996Z,5.38
2022-12-27T00:10:43.312Z,5.15
2022-12-27T00:13:10.387Z,5.85
2022-12-27T00:15:37.635Z,5.82
2022-12-27T00:18:04.901Z,7.57
2022-12-27T00:20:32.161Z,7.57
2022-12-27T00:23:01.244Z,7.53
2022-12-27T00:25:28.795Z,9.20
2022-12-27T00:27:55.954Z,6.47
2022-12-27T00:30:23.213Z,7.78
2022-12-27T00:32:50.435Z,6.22
2022-12-27T00:35:17.584Z,6.13
2022-12-27T00:37:45.038Z,5.60
2022-12-27T00:40:12.597Z,5.50
2022-12-27T00:42:39.794Z,4.78
2022-12-27T00:45:07.585Z,3.78
2022-12-27T00:47:34.800Z,4.05
2022-12-27T00:50:01.912Z,4.10
2022-12-27T00:52:31.862Z,4.00
2022-12-27T00:54:58.943Z,3.88
2022-12-27T00:57:26.073Z,3.75
2022-12-27T00:59:54.597Z,3.67
2022-12-27T01:02:21.898Z,4.13
2022-12-27T01:04:49.059Z,3.70
2022-12-27T01:07:16.366Z,4.25
2022-12-27T01:09:43.596Z,4.60
2022-12-27T01:12:10.914Z,4.20
2022-12-27T01:14:38.098Z,4.07
2022-12-27T01:17:05.241Z,4.20
2022-12-27T01:19:34.997Z,4.35
2022-12-27T01:22:06.697Z,4.30
2022-12-27T01:24:34.701Z,3.95
2022-12-27T01:27:02.197Z,4.18
2022-12-27T01:29:29.610Z,4.18
2022-12-27T01:31:56.896Z,4.30
2022-12-27T01:34:23.989Z,4.20
2022-12-27T01:36:51.303Z,4.13
2022-12-27T01:39:18.434Z,4.63
2022-12-27T01:42:04.864Z,4.32
2022-12-27T01:44:38.369Z,4.30
2022-12-27T01:47:36.480Z,4.30
2022-12-27T01:50:35.886Z,4.10
2022-12-27T01:53:31.351Z,3.72
2022-12-27T01:56:09.807Z,4.10
2022-12-27T01:59:02.100Z,4.55
2022-12-27T02:01:34.700Z,4.25
2022-12-27T02:04:08.515Z,3.70
2022-12-27T02:06:38.940Z,3.60
2022-12-27T02:09:42.433Z,3.58
2022-12-27T02:12:10.804Z,3.70
2022-12-27T02:14:49.583Z,3.20
2022-12-27T02:17:24.996Z,3.33
2022-12-27T02:20:01.246Z,3.83
2022-12-27T02:23:24.531Z,3.20
2022-12-27T02:25:51.593Z,3.50
2022-12-27T02:28:37.920Z,3.83
2022-12-27T02:31:39.043Z,3.92
2022-12-27T02:34:14.246Z,3.47
2022-12-27T02:36:44.534Z,3.42
2022-12-27T02:39:14.772Z,3.42
2022-12-27T02:42:02.158Z,3.70
2022-12-27T02:44:47.822Z,3.67
2022-12-27T02:47:42.039Z,3.40
2022-12-27T02:50:31.344Z,3.40
2022-12-27T02:53:34.024Z,3.28
2022-12-27T02:56:28.919Z,3.10
2022-12-27T02:59:14.131Z,3.30
2022-12-27T03:02:17.838Z,3.53
2022-12-27T03:05:03.124Z,3.60
2022-12-27T03:07:51.049Z,3.65
2022-12-27T03:10:56.384Z,3.58
2022-12-27T03:13:48.167Z,3.70
2022-12-27T03:16:27.670Z,3.55
2022-12-27T03:19:35.941Z,3.70
2022-12-27T03:22:22.601Z,3.53
2022-12-27T03:25:08.277Z,4.00
2022-12-27T03:27:37.224Z,3.47
2022-12-27T03:30:29.869Z,3.83
2022-12-27T03:33:13.174Z,3.47
2022-12-27T03:36:09.147Z,3.80
2022-12-27T03:38:53.130Z,3.95
2022-12-27T03:41:54.189Z,3.80
2022-12-27T03:44:27.146Z,3.88
2022-12-27T03:47:00.171Z,3.72
2022-12-27T03:49:39.668Z,4.07
2022-12-27T03:52:34.754Z,4.03
2022-12-27T03:55:02.821Z,5.07
2022-12-27T03:57:30.644Z,4.10
2022-12-27T03:59:57.981Z,4.40
2022-12-27T04:02:25.381Z,4.70
2022-12-27T04:04:53.174Z,4.22
2022-12-27T04:07:20.217Z,4.80
2022-12-27T04:10:06.947Z,4.20
2022-12-27T04:12:52.573Z,4.20
2022-12-27T04:15:38.238Z,4.10
2022-12-27T04:18:23.826Z,4.55
2022-12-27T04:23:56.033Z,4.63
2022-12-27T04:26:41.844Z,4.85
2022-12-27T04:29:27.739Z,4.38
2022-12-27T04:32:13.972Z,4.60
2022-12-27T04:37:17.138Z,4.93
2022-12-27T04:40:04.276Z,5.28
2022-12-27T04:42:49.955Z,5.10
2022-12-27T04:45:35.979Z,5.18
2022-12-27T04:48:22.230Z,5.15
2022-12-27T04:51:08.186Z,5.10
2022-12-27T04:53:54.986Z,5.60
2022-12-27T04:56:22.120Z,5.90
2022-12-27T04:59:07.671Z,5.35
2022-12-27T05:01:53.396Z,5.70
2022-12-27T05:04:21.406Z,5.70
2022-12-27T05:06:48.602Z,5.43
2022-12-27T05:09:34.550Z,5.43
2022-12-27T05:12:20.142Z,6.70
2022-12-27T05:14:47.667Z,5.07
2022-12-27T05:17:15.078Z,5.82
2022-12-27T05:19:43.289Z,6.93
2022-12-27T05:22:32.945Z,7.75
2022-12-27T05:25:19.606Z,8.48
2022-12-27T05:27:51.171Z,7.20
2022-12-27T05:30:20.937Z,6.43
2022-12-27T05:32:50.275Z,6.88
2022-12-27T05:35:17.529Z,6.25
2022-12-27T05:37:47.674Z,7.20
2022-12-27T05:40:19.183Z,6.17
2022-12-27T05:42:46.399Z,6.63
2022-12-27T05:45:14.376Z,6.65
2022-12-27T05:47:41.849Z,6.88
2022-12-27T05:50:09.562Z,6.35
2022-12-27T05:52:40.908Z,6.80
2022-12-27T05:55:10.039Z,7.20
2022-12-27T05:57:37.175Z,6.68
2022-12-27T06:00:08.143Z,6.57
2022-12-27T06:02:46.009Z,7.70
2022-12-27T06:05:13.343Z,7.60
2022-12-27T06:07:40.940Z,7.28
2022-12-27T06:10:09.520Z,7.53
2022-12-27T06:12:37.518Z,7.80
2022-12-27T06:15:06.075Z,7.57
2022-12-27T06:17:33.382Z,8.00
2022-12-27T06:20:00.756Z,8.43
2022-12-27T06:22:27.935Z,8.30
2022-12-27T06:24:57.771Z,8.15
2022-12-27T06:27:27.164Z,8.50
2022-12-27T06:29:54.611Z,8.50
2022-12-27T06:32:22.223Z,12.45
2022-12-27T06:34:49.486Z,9.10
2022-12-27T06:37:18.245Z,9.45
2022-12-27T06:39:45.664Z,9.80
2022-12-27T06:42:12.834Z,9.80
2022-12-27T06:44:39.964Z,9.68
2022-12-27T06:47:07.377Z,9.88
2022-12-27T06:49:34.471Z,10.30
2022-12-27T06:52:01.569Z,10.40
2022-12-27T06:54:29.814Z,12.15
2022-12-27T06:56:57.129Z,9.75
2022-12-27T06:59:24.700Z,12.15
2022-12-27T07:01:52.128Z,9.70
2022-12-27T07:04:20.627Z,10.88
2022-12-27T07:06:47.756Z,10.10
2022-12-27T07:09:15.088Z,11.98
2022-12-27T07:11:42.362Z,10.02
2022-12-27T07:14:10.855Z,9.88
2022-12-27T07:16:38.705Z,11.73
2022-12-27T07:19:06.442Z,11.40
2022-12-27T07:21:34.675Z,12.00
2022-12-27T07:24:01.996Z,13.10
2022-12-27T07:26:30.835Z,13.40
2022-12-27T07:29:00.904Z,11.20
2022-12-27T07:31:32.441Z,11.80
2022-12-27T07:34:02.616Z,11.65
2022-12-27T07:36:34.468Z,12.23
2022-12-27T07:39:02.317Z,11.43
2022-12-27T07:41:29.557Z,12.20
2022-12-27T07:43:57.136Z,12.27
2022-12-27T07:46:26.474Z,13.00
2022-12-27T07:48:58.216Z,12.60
2022-12-27T07:51:26.442Z,13.35
2022-12-27T07:53:54.303Z,16.38
2022-12-27T07:56:26.565Z,16.52
2022-12-27T07:58:55.741Z,16.08
2022-12-27T08:01:26.993Z,16.70
2022-12-27T08:03:54.455Z,17.73
2022-12-27T08:06:34.023Z,15.32
2022-12-27T08:09:05.205Z,16.95
2022-12-27T08:11:32.840Z,17.23
2022-12-27T08:14:00.137Z,17.55
2022-12-27T08:16:27.679Z,18.08
2022-12-27T08:18:55.424Z,17.40
2022-12-27T08:21:23.978Z,18.60
2022-12-27T08:23:51.347Z,19.58
2022-12-27T08:26:18.639Z,16.58
2022-12-27T08:28:45.924Z,15.38
2022-12-27T08:31:13.994Z,16.15
2022-12-27T08:33:42.217Z,16.40
2022-12-27T08:38:59.565Z,14.68
2022-12-27T08:41:26.776Z,13.82
2022-12-27T08:43:53.894Z,14.95
2022-12-27T08:46:21.448Z,17.10
2022-12-27T08:48:49.731Z,14.98
2022-12-27T08:51:30.027Z,17.08
2022-12-27T08:53:58.994Z,14.02
2022-12-27T08:56:26.501Z,16.73
2022-12-27T08:58:53.905Z,17.20
2022-12-27T09:01:21.734Z,18.00
2022-12-27T09:03:49.137Z,17.17
2022-12-27T09:06:19.381Z,17.73
2022-12-27T09:08:48.264Z,17.58
2022-12-27T09:11:20.959Z,18.15
2022-12-27T09:13:48.711Z,16.95
2022-12-27T09:16:21.436Z,19.45
2022-12-27T09:18:54.130Z,17.98
2022-12-27T09:21:23.917Z,18.50
2022-12-27T09:23:52.010Z,17.95
2022-12-27T09:26:22.742Z,18.70
2022-12-27T09:28:51.055Z,19.08
2022-12-27T09:31:19.865Z,18.67
2022-12-27T09:33:47.641Z,20.95
2022-12-27T09:36:17.448Z,21.40
2022-12-27T09:38:45.873Z,18.42
2022-12-27T09:44:51.065Z,19.52
2022-12-27T09:47:28.991Z,22.23
2022-12-27T09:50:02.887Z,21.05
2022-12-27T09:52:51.709Z,19.85
2022-12-27T09:55:32.610Z,19.38
2022-12-27T09:58:35.024Z,21.52
2022-12-27T10:01:03.390Z,22.38
2022-12-27T10:03:31.091Z,20.55
2022-12-27T10:06:30.548Z,22.20
2022-12-27T10:09:06.895Z,22.80
2022-12-27T10:11:43.354Z,21.83
2022-12-27T10:14:30.915Z,24.88
2022-12-27T10:17:20.581Z,23.15
2022-12-27T10:19:59.288Z,23.25
2022-12-27T10:22:29.906Z,25.98
2022-12-27T10:25:01.080Z,27.60
2022-12-27T10:27:31.483Z,24.77
2022-12-27T10:30:00.397Z,26.77
2022-12-27T10:32:28.271Z,28.15
2022-12-27T10:35:03.039Z,26.75
2022-12-27T10:37:31.168Z,26.42
2022-12-27T10:40:14.650Z,24.95
2022-12-27T10:42:51.976Z,27.40
2022-12-27T10:45:33.665Z,25.67
2022-12-27T10:48:15.685Z,24.15
2022-12-27T10:50:50.498Z,23.88
2022-12-27T10:53:28.790Z,22.88
2022-12-27T10:56:14.302Z,23.65
2022-12-27T10:58:51.680Z,23.30
2022-12-27T11:01:24.491Z,23.02
2022-12-27T11:03:52.940Z,19.85
2022-12-27T11:06:26.404Z,18.80
2022-12-27T11:08:54.356Z,22.88
2022-12-27T11:11:24.387Z,21.20
2022-12-27T11:13:53.219Z,21.75
2022-12-27T11:16:29.400Z,21.52
2022-12-27T11:18:59.607Z,21.50
2022-12-27T11:21:28.810Z,22.55
2022-12-27T11:24:00.103Z,20.52
2022-12-27T11:26:40.073Z,21.02
2022-12-27T11:29:16.063Z,21.48
2022-12-27T11:31:48.619Z,20.92
2022-12-27T11:34:27.040Z,20.05
2022-12-27T11:37:02.266Z,19.52
2022-12-27T11:39:44.710Z,18.10
2022-12-27T11:42:18.164Z,19.85
2022-12-27T11:45:07.595Z,19.10
2022-12-27T11:47:44.366Z,18.45
2022-12-27T11:50:27.041Z,19.05
2022-12-27T11:53:04.801Z,18.25
2022-12-27T11:55:50.626Z,17.02
2022-12-27T11:58:44.390Z,16.65
2022-12-27T12:01:45.260Z,16.73
2022-12-27T12:04:16.688Z,15.57
2022-12-27T12:06:59.401Z,15.23
2022-12-27T12:09:36.474Z,16.00
2022-12-27T12:12:27.429Z,16.10
2022-12-27T12:15:07.077Z,16.40
2022-12-27T12:18:07.510Z,15.63
2022-12-27T12:20:50.755Z,14.77
2022-12-27T12:23:57.479Z,14.40
2022-12-27T12:26:27.185Z,13.95
2022-12-27T12:29:24.756Z,14.35
2022-12-27T12:32:01.715Z,12.98
2022-12-27T12:35:02.053Z,14.50
2022-12-27T12:38:03.307Z,14.40
2022-12-27T12:40:39.717Z,13.60
2022-12-27T12:43:44.489Z,12.85
2022-12-27T12:46:24.006Z,13.60
2022-12-27T12:49:13.023Z,13.60
2022-12-27T12:52:05.876Z,14.15
2022-12-27T12:54:51.379Z,15.25
2022-12-27T13:00:57.051Z,14.82
2022-12-27T13:03:46.562Z,14.18
2022-12-27T13:06:32.833Z,15.55
2022-12-27T13:09:37.377Z,15.18
2022-12-27T13:12:35.873Z,14.70
2022-12-27T13:15:40.025Z,13.73
2022-12-27T13:18:29.939Z,15.07
2022-12-27T13:21:24.947Z,13.63
2022-12-27T13:23:51.992Z,14.05
2022-12-27T13:27:00.549Z,15.60
2022-12-27T13:29:49.593Z,15.32
2022-12-27T13:32:37.148Z,13.80
2022-12-27T13:35:23.972Z,13.85
2022-12-27T13:38:10.147Z,13.57
2022-12-27T13:41:05.991Z,15.13
2022-12-27T13:44:07.559Z,16.75
2022-12-27T13:47:01.607Z,12.93
2022-12-27T13:49:54.278Z,12.98
2022-12-27T13:52:36.781Z,14.80
2022-12-27T13:55:31.496Z,26.17
2022-12-27T13:58:35.792Z,21.80
2022-12-27T14:01:29.672Z,19.08
2022-12-27T14:04:12.379Z,19.00
2022-12-27T14:07:33.662Z,19.63
2022-12-27T14:10:01.521Z,16.20
2022-12-27T14:12:57.872Z,14.63
2022-12-27T14:15:28.036Z,15.52
2022-12-27T14:18:03.721Z,19.33
2022-12-27T14:20:49.430Z,16.88
2022-12-27T14:23:39.442Z,16.98
2022-12-27T14:26:30.867Z,13.15
2022-12-27T14:29:23.231Z,15.20
2022-12-27T14:32:17.671Z,14.15
2022-12-27T14:35:22.701Z,19.25
2022-12-27T14:38:08.324Z,15.80
2022-12-27T14:41:09.550Z,16.58
2022-12-27T14:43:58.965Z,17.10
2022-12-27T14:46:33.145Z,16.67
2022-12-27T14:49:18.438Z,15.05
2022-12-27T14:54:48.356Z,15.05
2022-12-27T14:57:43.649Z,14.68
2022-12-27T15:00:17.872Z,15.05
2022-12-27T15:03:03.650Z,12.80
2022-12-27T15:06:01.499Z,13.63
2022-12-27T15:08:41.329Z,12.07
2022-12-27T15:11:23.906Z,12.88
2022-12-27T15:14:06.603Z,12.98
2022-12-27T15:16:44.127Z,13.23
2022-12-27T15:19:35.938Z,13.90
2022-12-27T15:22:09.234Z,16.10
2022-12-27T15:24:56.692Z,12.90
2022-12-27T15:27:33.743Z,12.80
2022-12-27T15:30:22.493Z,12.43
2022-12-27T15:33:07.734Z,14.48
2022-12-27T15:36:13.767Z,13.95
2022-12-27T15:38:54.410Z,12.70
2022-12-27T15:41:50.771Z,12.27
2022-12-27T15:44:44.238Z,11.90
2022-12-27T15:47:30.142Z,13.60
2022-12-27T15:50:00.542Z,14.40
2022-12-27T15:52:55.071Z,12.15
2022-12-27T15:55:58.670Z,11.60
2022-12-27T15:58:26.952Z,10.77
2022-12-27T16:01:19.215Z,12.18
2022-12-27T16:03:53.735Z,11.40
2022-12-27T16:06:36.489Z,11.70
2022-12-27T16:09:20.844Z,12.98
2022-12-27T16:12:11.128Z,12.27
2022-12-27T16:14:40.894Z,13.50
2022-12-27T16:17:36.115Z,11.95
2022-12-27T16:20:12.607Z,12.93
2022-12-27T16:22:56.854Z,12.43
2022-12-27T16:25:34.214Z,13.13
2022-12-27T16:28:07.772Z,17.23
2022-12-27T16:30:39.606Z,14.73
2022-12-27T16:33:27.660Z,14.55
2022-12-27T16:36:17.960Z,12.65
2022-12-27T16:39:12.811Z,13.35
2022-12-27T16:41:57.976Z,13.48
2022-12-27T16:44:25.344Z,12.52
2022-12-27T16:47:07.527Z,12.10
2022-12-27T16:49:55.728Z,11.95
2022-12-27T16:52:34.984Z,12.88
2022-12-27T16:55:40.802Z,12.73
2022-12-27T16:58:34.635Z,13.35
2022-12-27T17:01:53.024Z,12.77
2022-12-27T17:04:50.139Z,12.38
2022-12-27T17:07:45.795Z,12.88
2022-12-27T17:10:25.320Z,11.90
2022-12-27T17:12:57.116Z,12.15
2022-12-27T17:15:25.441Z,12.95
2022-12-27T17:17:55.908Z,12.27
2022-12-27T17:20:24.057Z,12.07
2022-12-27T17:22:58.075Z,10.63
2022-12-27T17:25:45.627Z,10.88
2022-12-27T17:28:25.601Z,10.82
2022-12-27T17:31:24.447Z,11.68
2022-12-27T17:34:14.866Z,10.52
2022-12-27T17:37:13.425Z,10.80
2022-12-27T17:39:53.862Z,10.38
2022-12-27T17:43:13.041Z,9.52
2022-12-27T17:46:29.146Z,10.52
2022-12-27T17:48:58.130Z,10.30
2022-12-27T17:51:31.037Z,9.77
2022-12-27T17:54:17.163Z,9.02
2022-12-27T17:57:19.669Z,9.98
2022-12-27T17:59:50.861Z,9.43
2022-12-27T18:02:30.733Z,9.57
2022-12-27T18:05:03.074Z,9.95
2022-12-27T18:07:33.491Z,9.52
2022-12-27T18:10:02.612Z,9.50
2022-12-27T18:12:37.328Z,9.77
2022-12-27T18:15:09.264Z,8.75
2022-12-27T18:17:43.040Z,9.68
2022-12-27T18:20:28.757Z,9.77
2022-12-27T18:23:05.808Z,9.15
2022-12-27T18:25:45.230Z,9.07
2022-12-27T18:28:33.532Z,10.68
2022-12-27T18:31:19.880Z,9.98
2022-12-27T18:33:53.973Z,10.15
2022-12-27T18:36:27.428Z,9.52
2022-12-27T18:39:00.474Z,9.57
2022-12-27T18:41:34.443Z,9.18
2022-12-27T18:44:02.447Z,9.75
2022-12-27T18:46:33.155Z,9.85
2022-12-27T18:49:03.066Z,9.77
2022-12-27T18:51:36.528Z,9.60
2022-12-27T18:54:23.192Z,10.02
2022-12-27T18:56:55.726Z,12.70
2022-12-27T18:59:29.307Z,9.32
2022-12-27T19:01:59.355Z,8.73
2022-12-27T19:04:31.578Z,9.80
2022-12-27T19:07:10.878Z,9.02
2022-12-27T19:09:41.862Z,9.10
2022-12-27T19:12:23.994Z,8.70
2022-12-27T19:14:51.524Z,9.63
2022-12-27T19:17:25.362Z,9.13
2022-12-27T19:20:02.338Z,8.73
2022-12-27T19:22:37.034Z,10.48
2022-12-27T19:25:19.445Z,13.13
2022-12-27T19:28:08.633Z,11.20
2022-12-27T19:30:40.945Z,10.40
2022-12-27T19:33:22.038Z,10.32
2022-12-27T19:35:52.867Z,10.02
2022-12-27T19:38:23.368Z,9.82
2022-12-27T19:40:59.523Z,10.57
2022-12-27T19:43:39.466Z,12.48
2022-12-27T19:46:07.021Z,10.70
2022-12-27T19:48:36.120Z,10.18
2022-12-27T19:51:03.443Z,10.35
2022-12-27T19:53:41.690Z,10.20
2022-12-27T19:56:09.323Z,9.77
2022-12-27T19:58:38.395Z,9.75
2022-12-27T20:01:05.636Z,9.35
2022-12-27T20:03:33.094Z,10.18
2022-12-27T20:06:14.134Z,10.30
2022-12-27T20:08:46.046Z,10.00
2022-12-27T20:11:21.207Z,13.20
2022-12-27T20:13:49.256Z,10.18
2022-12-27T20:16:18.598Z,11.75
2022-12-27T20:18:46.646Z,10.93
2022-12-27T20:21:18.640Z,10.80
2022-12-27T20:23:47.037Z,11.20
2022-12-27T20:26:19.553Z,10.70
2022-12-27T20:28:47.381Z,11.75
2022-12-27T20:31:17.078Z,10.35
2022-12-27T20:33:44.220Z,10.60
2022-12-27T20:36:11.945Z,10.80
2022-12-27T20:38:40.068Z,11.25
2022-12-27T20:41:13.000Z,10.68
2022-12-27T20:43:40.776Z,10.93
2022-12-27T20:46:10.188Z,12.57
2022-12-27T20:48:42.367Z,14.05
2022-12-27T20:51:13.294Z,12.57
2022-12-27T20:53:40.637Z,11.00
2022-12-27T20:56:09.610Z,12.07
2022-12-27T20:58:36.924Z,13.45
2022-12-27T21:01:13.123Z,15.15
2022-12-27T21:03:41.622Z,11.30
2022-12-27T21:06:17.118Z,11.73
2022-12-27T21:08:49.169Z,12.32
2022-12-27T21:11:24.314Z,12.52
2022-12-27T21:13:51.816Z,12.45
2022-12-27T21:16:22.106Z,13.68
2022-12-27T21:18:49.795Z,12.10
2022-12-27T21:21:21.631Z,13.07
2022-12-27T21:23:50.028Z,14.50
2022-12-27T21:26:19.730Z,11.98
2022-12-27T21:28:47.494Z,12.27
2022-12-27T21:31:16.629Z,13.40
2022-12-27T21:33:43.861Z,12.15
2022-12-27T21:36:16.409Z,11.82
2022-12-27T21:38:43.945Z,12.13
2022-12-27T21:41:17.544Z,11.13
2022-12-27T21:43:45.779Z,12.10
2022-12-27T21:46:24.839Z,12.70
2022-12-27T21:49:01.153Z,14.65
2022-12-27T21:51:29.882Z,12.20
2022-12-27T21:53:57.356Z,12.07
2022-12-27T21:56:25.091Z,11.98
2022-12-27T21:58:52.720Z,12.70
2022-12-27T22:01:22.790Z,14.95
2022-12-27T22:03:52.103Z,12.50
2022-12-27T22:06:20.578Z,12.70
2022-12-27T22:08:50.540Z,12.20
2022-12-27T22:11:19.632Z,16.20
2022-12-27T22:13:47.134Z,14.88
2022-12-27T22:16:16.935Z,13.02
2022-12-27T22:18:45.463Z,13.02
2022-12-27T22:21:17.730Z,14.73
2022-12-27T22:23:47.580Z,14.60
2022-12-27T22:26:17.772Z,14.52
2022-12-27T22:28:45.604Z,12.60
2022-12-27T22:31:36.868Z,14.25
2022-12-27T22:34:05.735Z,14.40
2022-12-27T22:36:33.615Z,16.08
2022-12-27T22:39:02.941Z,12.52
2022-12-27T22:41:32.647Z,13.30
2022-12-27T22:44:02.839Z,12.90
2022-12-27T22:46:51.248Z,14.25
2022-12-27T22:49:18.590Z,12.88
2022-12-27T22:51:45.977Z,13.43
2022-12-27T22:54:13.321Z,12.00
2022-12-27T22:56:42.368Z,11.82
2022-12-27T22:59:11.929Z,12.35
2022-12-27T23:01:40.630Z,11.63
2022-12-27T23:04:10.216Z,11.65
2022-12-27T23:06:37.915Z,11.93
2022-12-27T23:09:05.797Z,11.52
2022-12-27T23:11:37.700Z,11.43
2022-12-27T23:14:09.872Z,12.25
2022-12-27T23:16:39.177Z,11.10
2022-12-27T23:19:07.850Z,11.27
2022-12-27T23:21:35.285Z,10.50
2022-12-27T23:24:02.675Z,10.52
2022-12-27T23:26:31.050Z,9.25
2022-12-27T23:28:58.330Z,10.00
2022-12-27T23:31:27.201Z,10.43
2022-12-27T23:33:54.574Z,9.13
2022-12-27T23:36:22.326Z,9.70
2022-12-27T23:38:50.109Z,9.35
2022-12-27T23:41:20.605Z,9.18
2022-12-27T23:43:53.648Z,9.80
2022-12-27T23:46:24.036Z,8.52
2022-12-27T23:48:51.627Z,8.70
2022-12-27T23:51:20.217Z,9.70
2022-12-27T23:53:47.682Z,8.75
2022-12-27T23:56:25.882Z,8.75
2022-12-27T23:58:55.508Z,9.48
